FAWB/PRY METAR and TAF weather

Enter ICAO airport designator
Station Type Date Time Source
FAWB METAR 2021/10/23 15:00 UTC NOAA

FAWB 231500Z 30015KT CAVOK 32/01 Q1012


Station Type Date Time Source
FAWB Decoded METAR 2021/10/23 15:00 UTC NOAA

Wonderboom / Pretoria, South Africa (FAWB) 25-39S 028-13E
Oct 23, 2021 - 11:00 AM EDT / 2021.10.23 1500 UTC
Wind: from the WNW (300 degrees) at 17 MPH (15 KT):0
Visibility: greater than 7 mile(s):0
Temperature: 89 F (32 C)
Dew Point: 33 F (1 C)
Relative Humidity: 13%
Pressure (altimeter): 29.88 in. Hg (1012 hPa)
ob: FAWB 231500Z 30015KT CAVOK 32/01 Q1012
cycle: 15

Station Type Date Time Source
FAWB TAF 2021/05/05 07:00 UTC NOAA

TAF FAWB 050608Z 0507/0518 VRB03KT CAVOK TX24/0512Z TN15/0518Z

Example: see airport list